Time;durP1;ratioP1;P1;durP2;ratioP2;P2;SDS_P1;SDS_P2;PMS_P1;PMS_P2;Temp;Humidity;BMP_temperature;BMP_pressure;BME280_temperature;BME280_humidity;BME280_pressure;Samples;Min_cycle;Max_cycle;Signal;HPM_P1;HPM_P2
2022/05/28 00:00:59;;;;;;;13.77;1.35;;;;;;;;;;4975849;28;20034;-85
2022/05/28 00:03:26;;;;;;;18.77;1.88;;;;;;;;;;4966216;28;20034;-86
2022/05/28 00:05:52;;;;;;;7.30;2.10;;;;;;;;;;4963550;28;20148;-85
2022/05/28 00:08:18;;;;;;;10.27;1.67;;;;;;;;;;4972502;28;20544;-85
2022/05/28 00:10:45;;;;;;;7.65;1.92;;;;;;;;;;4958958;28;20065;-86
2022/05/28 00:13:11;;;;;;;12.73;2.53;;;;;;;;;;4978445;28;20378;-86
2022/05/28 00:15:37;;;;;;;13.35;1.80;;;;;;;;;;4957893;28;20620;-85
2022/05/28 00:18:03;;;;;;;16.35;1.88;;;;;;;;;;4958893;28;20145;-85
2022/05/28 00:20:29;;;;;;;10.30;1.73;;;;;;;;;;4962133;28;20407;-85
2022/05/28 00:22:55;;;;;;;15.75;2.55;;;;;;;;;;4966488;28;20099;-85
2022/05/28 00:25:21;;;;;;;4.72;1.88;;;;;;;;;;4965165;28;20532;-85
2022/05/28 00:27:47;;;;;;;17.80;1.65;;;;;;;;;;4964062;28;20034;-85
2022/05/28 00:30:16;;;;;;;11.30;2.00;;;;;;;;;;4972416;28;20431;-86
2022/05/28 00:32:42;;;;;;;10.93;1.75;;;;;;;;;;4958399;28;20054;-85
2022/05/28 00:35:09;;;;;;;11.68;1.73;;;;;;;;;;4960799;28;20490;-85
2022/05/28 00:37:36;;;;;;;12.38;2.00;;;;;;;;;;4967737;28;20034;-85
2022/05/28 00:40:03;;;;;;;6.65;1.63;;;;;;;;;;4960359;28;20049;-85
2022/05/28 00:42:29;;;;;;;7.55;1.30;;;;;;;;;;4973627;28;20031;-85
2022/05/28 00:44:56;;;;;;;9.48;1.98;;;;;;;;;;4958293;28;20564;-85
2022/05/28 00:47:22;;;;;;;22.25;1.88;;;;;;;;;;4960504;28;20062;-85
2022/05/28 00:49:48;;;;;;;8.38;1.75;;;;;;;;;;4962170;28;20030;-85
2022/05/28 00:52:14;;;;;;;6.22;1.58;;;;;;;;;;4957633;28;20026;-86
2022/05/28 00:54:45;;;;;;;6.07;1.20;;;;;;;;;;4965025;28;20031;-86
2022/05/28 00:57:12;;;;;;;9.80;1.75;;;;;;;;;;4960857;28;20285;-85
2022/05/28 00:59:38;;;;;;;9.75;1.80;;;;;;;;;;4956136;28;20452;-85
2022/05/28 01:02:14;;;;;;;12.73;2.22;;;;;;;;;;4957992;28;20069;-85
2022/05/28 01:04:43;;;;;;;6.82;1.40;;;;;;;;;;4976408;28;20098;-86
2022/05/28 01:07:21;;;;;;;8.55;1.38;;;;;;;;;;4975769;28;20062;-86
2022/05/28 01:10:05;;;;;;;12.50;1.38;;;;;;;;;;4956516;28;20058;-85
2022/05/28 01:12:41;;;;;;;9.85;1.48;;;;;;;;;;4957947;28;20351;-85
2022/05/28 01:15:07;;;;;;;;;;;;;;;;;;4977303;28;20031;-86
2022/05/28 01:17:45;;;;;;;10.93;1.52;;;;;;;;;;4960228;28;19924;-85
2022/05/28 01:20:15;;;;;;;9.23;2.08;;;;;;;;;;4976998;28;20573;-85
2022/05/28 01:22:50;;;;;;;14.38;1.70;;;;;;;;;;4962402;28;20590;-85
2022/05/28 01:25:16;;;;;;;8.93;1.40;;;;;;;;;;4976039;28;20508;-85
2022/05/28 01:27:54;;;;;;;14.75;1.85;;;;;;;;;;4965094;28;20027;-86
2022/05/28 01:30:20;;;;;;;15.93;1.67;;;;;;;;;;4963822;28;21234;-85
2022/05/28 01:32:49;;;;;;;13.38;2.47;;;;;;;;;;4965735;28;20542;-85
2022/05/28 01:35:16;;;;;;;12.52;1.67;;;;;;;;;;4967993;28;20022;-85
2022/05/28 01:37:43;;;;;;;13.73;2.03;;;;;;;;;;4960452;28;20058;-85
2022/05/28 01:40:10;;;;;;;10.15;1.75;;;;;;;;;;4976458;28;20109;-85
2022/05/28 01:42:37;;;;;;;7.68;1.90;;;;;;;;;;4962222;28;20465;-85
2022/05/28 01:45:07;;;;;;;25.42;2.25;;;;;;;;;;4978110;28;20069;-85
2022/05/28 01:47:35;;;;;;;10.60;2.25;;;;;;;;;;4970985;28;20320;-85
2022/05/28 01:50:01;;;;;;;8.75;1.85;;;;;;;;;;4967874;28;20639;-85
2022/05/28 01:52:28;;;;;;;16.08;2.35;;;;;;;;;;4965326;28;20510;-85
2022/05/28 01:54:54;;;;;;;9.68;2.90;;;;;;;;;;4980578;28;20039;-85
2022/05/28 01:57:20;;;;;;;12.25;2.05;;;;;;;;;;4966240;28;20039;-85
2022/05/28 01:59:46;;;;;;;15.85;1.90;;;;;;;;;;4970593;28;20041;-85
2022/05/28 02:02:14;;;;;;;14.63;2.15;;;;;;;;;;4968447;28;20521;-85
2022/05/28 02:04:41;;;;;;;16.80;2.53;;;;;;;;;;4972818;28;20177;-85
2022/05/28 02:07:07;;;;;;;11.05;2.45;;;;;;;;;;4969289;28;20490;-85
2022/05/28 02:09:35;;;;;;;22.13;2.63;;;;;;;;;;4966566;28;20726;-86
2022/05/28 02:12:13;;;;;;;15.07;2.55;;;;;;;;;;4966172;28;20529;-85
2022/05/28 02:14:51;;;;;;;10.85;2.33;;;;;;;;;;4985174;28;20026;-85
2022/05/28 02:17:24;;;;;;;14.68;1.98;;;;;;;;;;4983346;28;20030;-86
2022/05/28 02:19:49;;;;;;;13.90;2.40;;;;;;;;;;4967811;28;20687;-85
2022/05/28 02:22:34;;;;;;;11.05;2.03;;;;;;;;;;4966821;28;20415;-85
2022/05/28 02:25:02;;;;;;;25.17;2.95;;;;;;;;;;4983475;28;20038;-86
2022/05/28 02:27:29;;;;;;;15.30;2.30;;;;;;;;;;4967237;28;20537;-85
2022/05/28 02:29:55;;;;;;;16.70;1.95;;;;;;;;;;4971039;28;20461;-85
2022/05/28 02:32:23;;;;;;;15.35;2.15;;;;;;;;;;4966733;28;20045;-85
2022/05/28 02:34:50;;;;;;;19.50;2.40;;;;;;;;;;4971621;28;20101;-86
2022/05/28 02:37:18;;;;;;;7.82;1.95;;;;;;;;;;4972103;28;20037;-85
2022/05/28 02:39:44;;;;;;;16.63;2.42;;;;;;;;;;4966508;28;20053;-85
2022/05/28 02:42:10;;;;;;;12.93;2.78;;;;;;;;;;4968542;28;20485;-85
2022/05/28 02:44:36;;;;;;;21.48;3.97;;;;;;;;;;4967525;28;20876;-86
2022/05/28 02:47:02;;;;;;;15.30;2.45;;;;;;;;;;4969217;28;20417;-85
2022/05/28 02:49:29;;;;;;;14.13;2.45;;;;;;;;;;4968091;28;20533;-86
2022/05/28 02:51:55;;;;;;;7.60;1.75;;;;;;;;;;4975144;28;20034;-84
2022/05/28 02:54:22;;;;;;;13.57;2.65;;;;;;;;;;4967924;28;20053;-86
2022/05/28 02:56:55;;;;;;;11.95;2.03;;;;;;;;;;4963814;28;20137;-87
2022/05/28 02:59:21;;;;;;;18.92;1.90;;;;;;;;;;4962970;28;20116;-85
2022/05/28 03:01:47;;;;;;;20.60;2.33;;;;;;;;;;4977710;28;20045;-85
2022/05/28 03:04:13;;;;;;;16.05;3.47;;;;;;;;;;4964887;28;20390;-86
2022/05/28 03:06:39;;;;;;;20.13;2.95;;;;;;;;;;4961743;28;20389;-86
2022/05/28 03:09:06;;;;;;;9.68;2.42;;;;;;;;;;4977078;28;20174;-85
2022/05/28 03:11:33;;;;;;;18.20;3.85;;;;;;;;;;4962777;28;20041;-86
2022/05/28 03:13:59;;;;;;;18.77;2.78;;;;;;;;;;4982111;28;20441;-86
2022/05/28 03:16:26;;;;;;;16.75;3.00;;;;;;;;;;4964784;28;20062;-85
2022/05/28 03:18:52;;;;;;;13.65;2.97;;;;;;;;;;4962691;28;20095;-86
2022/05/28 03:21:24;;;;;;;18.35;2.55;;;;;;;;;;4959639;28;20422;-86
2022/05/28 03:23:57;;;;;;;21.23;3.10;;;;;;;;;;4963077;28;20035;-85
2022/05/28 03:26:25;;;;;;;18.23;2.65;;;;;;;;;;4950757;28;20022;-86
2022/05/28 03:28:51;;;;;;;19.02;2.88;;;;;;;;;;4957390;28;20445;-86
2022/05/28 03:31:18;;;;;;;14.48;3.03;;;;;;;;;;4954204;28;20363;-85
2022/05/28 03:33:44;;;;;;;13.95;2.25;;;;;;;;;;4961466;28;20517;-85
2022/05/28 03:36:11;;;;;;;14.60;2.53;;;;;;;;;;4964903;28;20043;-86
2022/05/28 03:38:37;;;;;;;17.42;2.70;;;;;;;;;;4943004;28;20043;-85
2022/05/28 03:41:04;;;;;;;12.43;2.20;;;;;;;;;;4940217;28;20034;-85
2022/05/28 03:43:30;;;;;;;8.95;2.28;;;;;;;;;;4942819;28;20058;-86
2022/05/28 03:45:56;;;;;;;18.20;2.63;;;;;;;;;;4957343;28;20041;-85
2022/05/28 03:48:23;;;;;;;16.33;1.90;;;;;;;;;;4943737;28;20490;-86
2022/05/28 03:50:49;;;;;;;18.08;2.53;;;;;;;;;;4960584;28;20478;-86
2022/05/28 03:53:18;;;;;;;15.35;2.13;;;;;;;;;;4960477;28;20044;-85
2022/05/28 03:55:44;;;;;;;6.80;2.10;;;;;;;;;;4959288;28;20070;-85
2022/05/28 03:58:10;;;;;;;13.95;2.10;;;;;;;;;;4948377;28;20035;-85
2022/05/28 04:00:37;;;;;;;15.27;2.67;;;;;;;;;;4957719;28;20038;-85
2022/05/28 04:03:03;;;;;;;20.73;3.28;;;;;;;;;;4962585;28;20030;-85
2022/05/28 04:05:30;;;;;;;19.08;2.65;;;;;;;;;;4961945;28;20065;-85
2022/05/28 04:07:56;;;;;;;20.20;1.88;;;;;;;;;;4967253;28;20030;-85
2022/05/28 04:10:22;;;;;;;8.30;2.67;;;;;;;;;;4943504;28;20561;-85
2022/05/28 04:12:48;;;;;;;12.68;2.17;;;;;;;;;;4956184;28;20058;-85
2022/05/28 04:15:17;;;;;;;21.30;2.28;;;;;;;;;;4937781;28;20099;-85
2022/05/28 04:17:43;;;;;;;12.70;1.77;;;;;;;;;;4944902;28;20050;-85
2022/05/28 04:20:10;;;;;;;22.55;2.80;;;;;;;;;;4950430;28;20085;-85
2022/05/28 04:22:36;;;;;;;18.27;2.88;;;;;;;;;;4961811;28;20088;-85
2022/05/28 04:25:03;;;;;;;10.27;2.00;;;;;;;;;;4965636;28;20462;-85
2022/05/28 04:27:29;;;;;;;10.35;2.33;;;;;;;;;;4961075;28;20069;-85
2022/05/28 04:29:55;;;;;;;13.07;2.22;;;;;;;;;;4962601;28;20510;-85
2022/05/28 04:32:21;;;;;;;7.43;1.90;;;;;;;;;;4959872;28;20688;-86
2022/05/28 04:34:47;;;;;;;21.60;3.17;;;;;;;;;;4961064;28;20026;-85
2022/05/28 04:37:13;;;;;;;16.45;3.03;;;;;;;;;;4966375;28;20061;-85
2022/05/28 04:39:39;;;;;;;19.30;2.78;;;;;;;;;;4960385;28;20043;-85
2022/05/28 04:42:05;;;;;;;18.88;2.85;;;;;;;;;;4973819;28;20048;-85
2022/05/28 04:44:31;;;;;;;17.73;2.45;;;;;;;;;;4957032;28;21014;-86
2022/05/28 04:46:58;;;;;;;16.55;2.63;;;;;;;;;;4963891;28;20037;-86
2022/05/28 04:49:24;;;;;;;18.33;2.72;;;;;;;;;;4961824;28;20026;-86
2022/05/28 04:51:50;;;;;;;10.00;2.25;;;;;;;;;;4963749;28;20045;-86
2022/05/28 04:54:16;;;;;;;14.15;2.80;;;;;;;;;;4968425;28;20117;-85
2022/05/28 04:56:42;;;;;;;16.90;3.17;;;;;;;;;;4964972;28;20070;-85
2022/05/28 04:59:08;;;;;;;20.27;3.28;;;;;;;;;;4964300;28;20038;-86
2022/05/28 05:01:35;;;;;;;14.25;2.70;;;;;;;;;;4957977;28;20039;-85
2022/05/28 05:04:01;;;;;;;13.20;2.58;;;;;;;;;;4965901;28;20402;-86
2022/05/28 05:06:27;;;;;;;15.73;2.72;;;;;;;;;;4948250;28;20030;-85
2022/05/28 05:08:53;;;;;;;13.23;2.58;;;;;;;;;;4963369;28;20030;-86
2022/05/28 05:11:19;;;;;;;13.82;3.35;;;;;;;;;;4965653;28;20091;-85
2022/05/28 05:13:45;;;;;;;19.67;1.83;;;;;;;;;;4959105;28;20022;-86
2022/05/28 05:16:12;;;;;;;12.90;2.33;;;;;;;;;;4963496;28;20097;-85
2022/05/28 05:18:38;;;;;;;17.20;3.00;;;;;;;;;;4957314;28;20102;-86
2022/05/28 05:21:04;;;;;;;20.77;2.33;;;;;;;;;;4949475;28;20046;-86
2022/05/28 05:23:30;;;;;;;12.18;2.42;;;;;;;;;;4957743;28;20898;-86
2022/05/28 05:25:56;;;;;;;10.38;2.15;;;;;;;;;;4971813;28;20079;-85
2022/05/28 05:28:22;;;;;;;18.08;3.30;;;;;;;;;;4971004;28;20027;-86
2022/05/28 05:30:48;;;;;;;19.90;2.72;;;;;;;;;;4957720;28;20041;-86
2022/05/28 05:33:14;;;;;;;23.52;4.65;;;;;;;;;;4964184;28;20568;-85
2022/05/28 05:35:40;;;;;;;26.20;3.75;;;;;;;;;;4967153;28;20361;-85
2022/05/28 05:38:06;;;;;;;15.90;2.50;;;;;;;;;;4963018;28;20085;-86
2022/05/28 05:40:37;;;;;;;11.90;2.67;;;;;;;;;;4975157;28;20121;-86
2022/05/28 05:43:03;;;;;;;21.05;3.15;;;;;;;;;;4975522;28;20022;-86
2022/05/28 05:45:29;;;;;;;16.10;3.38;;;;;;;;;;4964776;28;20030;-86
2022/05/28 05:47:55;;;;;;;24.80;3.60;;;;;;;;;;4962518;28;20019;-86
2022/05/28 05:50:22;;;;;;;22.02;2.90;;;;;;;;;;4961734;28;20123;-86
2022/05/28 05:52:48;;;;;;;28.63;2.92;;;;;;;;;;4961074;28;20104;-86
2022/05/28 05:55:14;;;;;;;20.92;3.33;;;;;;;;;;4979760;28;20545;-85
2022/05/28 05:57:40;;;;;;;13.90;2.83;;;;;;;;;;4980924;28;20014;-86
2022/05/28 06:00:07;;;;;;;13.45;2.53;;;;;;;;;;4972016;28;20513;-86
2022/05/28 06:02:33;;;;;;;15.20;2.50;;;;;;;;;;4979705;28;20069;-86
2022/05/28 06:04:59;;;;;;;20.98;2.70;;;;;;;;;;4959007;28;20945;-85
2022/05/28 06:07:26;;;;;;;18.35;4.68;;;;;;;;;;4978996;28;20026;-86
2022/05/28 06:09:52;;;;;;;22.83;3.05;;;;;;;;;;4958463;28;20026;-86
2022/05/28 06:12:18;;;;;;;12.40;2.60;;;;;;;;;;4963666;28;20034;-86
2022/05/28 06:14:44;;;;;;;25.90;4.25;;;;;;;;;;4957166;28;20046;-87
2022/05/28 06:17:17;;;;;;;25.00;3.72;;;;;;;;;;4964761;28;20096;-86
2022/05/28 06:19:43;;;;;;;15.13;2.55;;;;;;;;;;4965615;28;20027;-86
2022/05/28 06:22:09;;;;;;;13.38;3.22;;;;;;;;;;4965747;28;20042;-86
2022/05/28 06:24:35;;;;;;;13.95;2.63;;;;;;;;;;4962025;28;20037;-86
2022/05/28 06:27:02;;;;;;;17.30;2.53;;;;;;;;;;4979325;28;20106;-85
2022/05/28 06:29:28;;;;;;;10.43;2.15;;;;;;;;;;4963332;28;20029;-86
2022/05/28 06:31:54;;;;;;;10.00;2.50;;;;;;;;;;4964664;28;20030;-86
2022/05/28 06:34:20;;;;;;;9.95;2.25;;;;;;;;;;4978727;28;20478;-87
2022/05/28 06:36:46;;;;;;;16.65;2.28;;;;;;;;;;4978305;28;20030;-86
2022/05/28 06:39:13;;;;;;;10.27;1.98;;;;;;;;;;4969312;28;20030;-87
2022/05/28 06:41:39;;;;;;;11.32;3.40;;;;;;;;;;4967397;28;20109;-86
2022/05/28 06:44:05;;;;;;;11.60;2.58;;;;;;;;;;4963893;28;20394;-86
2022/05/28 06:46:31;;;;;;;12.27;1.98;;;;;;;;;;4962151;28;20546;-86
2022/05/28 06:48:57;;;;;;;10.48;2.35;;;;;;;;;;4969461;28;20034;-87
2022/05/28 06:51:23;;;;;;;11.48;2.35;;;;;;;;;;4981154;28;20125;-86
2022/05/28 06:53:50;;;;;;;22.67;3.03;;;;;;;;;;4961868;28;20041;-86
2022/05/28 06:56:20;;;;;;;8.07;2.67;;;;;;;;;;4979888;28;20039;-86
2022/05/28 06:58:47;;;;;;;15.82;2.80;;;;;;;;;;4964889;28;20486;-86
2022/05/28 07:01:14;;;;;;;11.90;2.42;;;;;;;;;;4971044;28;20066;-86
2022/05/28 07:03:43;;;;;;;7.63;2.00;;;;;;;;;;4970324;28;20030;-85
2022/05/28 07:06:10;;;;;;;16.35;2.47;;;;;;;;;;4966205;28;20031;-86
2022/05/28 07:08:36;;;;;;;11.95;2.30;;;;;;;;;;4963940;28;21016;-86
2022/05/28 07:11:05;;;;;;;10.80;2.10;;;;;;;;;;4964155;28;20026;-86
2022/05/28 07:13:31;;;;;;;17.85;2.95;;;;;;;;;;4981130;28;20038;-86
2022/05/28 07:15:57;;;;;;;19.75;2.92;;;;;;;;;;4962679;28;20034;-86
2022/05/28 07:18:23;;;;;;;15.63;4.45;;;;;;;;;;4957737;28;20077;-85
2022/05/28 07:20:49;;;;;;;15.20;2.63;;;;;;;;;;4970043;28;21134;-89
2022/05/28 07:23:17;;;;;;;14.02;2.88;;;;;;;;;;4968144;28;20235;-92
2022/05/28 07:25:44;;;;;;;12.43;2.30;;;;;;;;;;4962906;28;20521;-90
2022/05/28 07:28:26;;;;;;;15.35;2.80;;;;;;;;;;4967482;28;20030;-91
2022/05/28 07:30:56;;;;;;;16.15;3.78;;;;;;;;;;4967085;28;20344;-91
2022/05/28 07:33:24;;;;;;;9.88;2.20;;;;;;;;;;4968881;28;20080;-90
2022/05/28 07:35:51;;;;;;;30.48;3.50;;;;;;;;;;4983833;28;20498;-91
2022/05/28 07:38:17;;;;;;;17.80;2.75;;;;;;;;;;4965882;28;20038;-90
2022/05/28 07:40:43;;;;;;;11.45;2.58;;;;;;;;;;4966569;28;20039;-89
2022/05/28 07:43:09;;;;;;;20.80;2.47;;;;;;;;;;4981681;28;20980;-90
2022/05/28 07:45:36;;;;;;;10.75;2.65;;;;;;;;;;4968352;28;20054;-90
2022/05/28 07:48:02;;;;;;;14.43;2.67;;;;;;;;;;4960808;28;20029;-90
2022/05/28 07:50:28;;;;;;;13.98;2.72;;;;;;;;;;4962303;28;20022;-90
2022/05/28 07:52:55;;;;;;;18.95;3.42;;;;;;;;;;4968308;28;20161;-90
2022/05/28 07:55:21;;;;;;;17.17;2.97;;;;;;;;;;4985570;28;20058;-91
2022/05/28 07:57:47;;;;;;;22.90;2.58;;;;;;;;;;4971094;28;20289;-92
2022/05/28 08:00:14;;;;;;;18.35;2.20;;;;;;;;;;4959514;28;20038;-91
2022/05/28 08:02:40;;;;;;;11.65;2.25;;;;;;;;;;4968764;28;20035;-91
2022/05/28 08:05:06;;;;;;;9.95;2.10;;;;;;;;;;4986496;28;20037;-90
2022/05/28 08:07:32;;;;;;;16.73;2.58;;;;;;;;;;4982667;28;20540;-90
2022/05/28 08:09:58;;;;;;;12.68;2.70;;;;;;;;;;4967319;28;20030;-90
2022/05/28 08:12:24;;;;;;;16.17;2.30;;;;;;;;;;4986334;28;20101;-91
2022/05/28 08:14:50;;;;;;;11.70;2.35;;;;;;;;;;4976742;28;20085;-91
2022/05/28 08:17:17;;;;;;;12.75;2.30;;;;;;;;;;4968396;28;20061;-90
2022/05/28 08:19:43;;;;;;;15.77;2.60;;;;;;;;;;4966513;28;20505;-91
2022/05/28 08:24:54;;;;;;;15.13;2.55;;;;;;;;;;4981945;28;20469;-91
2022/05/28 08:27:20;;;;;;;16.92;2.13;;;;;;;;;;4960338;28;20061;-92
2022/05/28 08:29:46;;;;;;;8.88;2.80;;;;;;;;;;4964873;28;20130;-92
2022/05/28 08:32:16;;;;;;;13.77;2.65;;;;;;;;;;4968790;28;20109;-91
2022/05/28 08:34:49;;;;;;;19.67;2.90;;;;;;;;;;4972681;28;20035;-90
2022/05/28 08:37:15;;;;;;;10.05;2.65;;;;;;;;;;4961836;28;20486;-90
2022/05/28 08:39:42;;;;;;;21.05;3.47;;;;;;;;;;4961250;28;20039;-89
2022/05/28 08:42:10;;;;;;;9.73;1.95;;;;;;;;;;4984485;28;20596;-93
2022/05/28 08:44:40;;;;;;;16.77;2.45;;;;;;;;;;4962481;28;20188;-91
2022/05/28 08:47:21;;;;;;;11.38;2.42;;;;;;;;;;4977609;28;20053;-92
2022/05/28 08:49:48;;;;;;;9.07;2.45;;;;;;;;;;4978396;28;20030;-91
2022/05/28 08:52:19;;;;;;;10.43;2.92;;;;;;;;;;4967793;28;20031;-92
2022/05/28 08:54:56;;;;;;;10.25;2.05;;;;;;;;;;4969861;28;20060;-90
2022/05/28 08:57:26;;;;;;;16.20;2.72;;;;;;;;;;4969248;28;20026;-91
2022/05/28 09:00:12;;;;;;;9.07;2.28;;;;;;;;;;4970346;28;20144;-89
2022/05/28 09:02:42;;;;;;;23.65;3.30;;;;;;;;;;4961295;28;20035;-90
2022/05/28 09:05:18;;;;;;;12.50;2.63;;;;;;;;;;4964534;28;20401;-90
2022/05/28 09:07:44;;;;;;;22.25;3.17;;;;;;;;;;4986667;28;20442;-91
2022/05/28 09:10:10;;;;;;;12.05;2.70;;;;;;;;;;4982709;28;20054;-91
2022/05/28 09:12:45;;;;;;;17.52;3.60;;;;;;;;;;4986032;28;20506;-91
2022/05/28 09:15:11;;;;;;;17.15;2.90;;;;;;;;;;4964473;28;20038;-91
2022/05/28 09:17:40;;;;;;;16.25;2.72;;;;;;;;;;4982592;28;20116;-91
2022/05/28 09:20:08;;;;;;;21.48;3.45;;;;;;;;;;4972565;28;20041;-91
2022/05/28 09:22:35;;;;;;;13.55;2.60;;;;;;;;;;4969874;28;20490;-91
2022/05/28 09:25:01;;;;;;;9.18;1.98;;;;;;;;;;4971575;28;20121;-90
2022/05/28 09:27:30;;;;;;;16.65;2.83;;;;;;;;;;4984170;28;20046;-91
2022/05/28 09:30:06;;;;;;;16.20;3.10;;;;;;;;;;4956605;28;20041;-89
2022/05/28 09:32:51;;;;;;;15.10;2.88;;;;;;;;;;4966337;28;20323;-90
2022/05/28 09:35:18;;;;;;;13.13;3.08;;;;;;;;;;4969624;28;20030;-93
2022/05/28 09:37:52;;;;;;;18.23;2.80;;;;;;;;;;4971929;28;20029;-91
2022/05/28 09:40:38;;;;;;;15.80;2.88;;;;;;;;;;4968321;28;20230;-92
2022/05/28 09:43:04;;;;;;;;;;;;;;;;;;4983031;28;20496;-88
2022/05/28 09:45:57;;;;;;;11.07;2.80;;;;;;;;;;4968930;28;19905;-92
2022/05/28 09:48:25;;;;;;;11.93;2.53;;;;;;;;;;4974796;28;20084;-90
2022/05/28 09:50:51;;;;;;;11.85;2.13;;;;;;;;;;4976769;28;20088;-91
2022/05/28 09:56:27;;;;;;;11.50;2.22;;;;;;;;;;4994334;28;20061;-91
2022/05/28 09:58:53;;;;;;;11.27;2.00;;;;;;;;;;4979464;28;20031;-90
2022/05/28 10:01:22;;;;;;;7.60;2.53;;;;;;;;;;4983533;28;20682;-93
2022/05/28 10:06:34;;;;;;;9.23;1.98;;;;;;;;;;4983011;28;20528;-92
2022/05/28 10:09:12;;;;;;;6.57;1.90;;;;;;;;;;4970620;28;20022;-91
2022/05/28 10:11:48;;;;;;;14.63;2.58;;;;;;;;;;4973287;28;20413;-92
2022/05/28 10:14:16;;;;;;;14.20;2.58;;;;;;;;;;4984485;28;20500;-92
2022/05/28 10:16:46;;;;;;;15.75;2.47;;;;;;;;;;4971449;28;20065;-90
2022/05/28 10:19:17;;;;;;;7.30;2.05;;;;;;;;;;4975396;28;20042;-92
2022/05/28 10:21:47;;;;;;;22.80;4.03;;;;;;;;;;4966019;28;20059;-91
2022/05/28 10:24:18;;;;;;;13.65;2.20;;;;;;;;;;4982740;28;20109;-91
2022/05/28 10:26:50;;;;;;;13.25;2.28;;;;;;;;;;4975458;28;20062;-92
2022/05/28 10:29:20;;;;;;;6.82;2.05;;;;;;;;;;4981758;28;20477;-92
2022/05/28 10:31:48;;;;;;;5.97;1.25;;;;;;;;;;4969531;28;20105;-91
2022/05/28 10:34:29;;;;;;;7.05;1.80;;;;;;;;;;4990802;28;20034;-91
2022/05/28 10:37:05;;;;;;;11.70;2.40;;;;;;;;;;4971552;28;20485;-92
2022/05/28 10:39:31;;;;;;;;;;;;;;;;;;4972243;28;20060;-92
2022/05/28 10:41:57;;;;;;;5.63;1.50;;;;;;;;;;4966379;28;19914;-90
2022/05/28 10:44:24;;;;;;;9.73;1.88;;;;;;;;;;4976643;28;20335;-91
2022/05/28 10:46:53;;;;;;;7.18;1.60;;;;;;;;;;4976358;28;20054;-91
2022/05/28 10:49:38;;;;;;;8.75;2.47;;;;;;;;;;4973350;28;20808;-91
2022/05/28 10:52:04;;;;;;;8.23;2.67;;;;;;;;;;4976194;28;20069;-91
2022/05/28 10:54:38;;;;;;;9.25;2.70;;;;;;;;;;4973317;28;20097;-91
2022/05/28 10:57:07;;;;;;;9.07;2.17;;;;;;;;;;4973403;28;20081;-92
2022/05/28 10:59:52;;;;;;;9.02;2.25;;;;;;;;;;4988578;28;20512;-91
2022/05/28 11:02:36;;;;;;;6.55;2.00;;;;;;;;;;4975250;28;20562;-92
2022/05/28 11:05:06;;;;;;;6.50;1.95;;;;;;;;;;4982028;28;20041;-91
2022/05/28 11:07:31;;;;;;;11.45;1.88;;;;;;;;;;4987922;28;20129;-91
2022/05/28 11:09:57;;;;;;;8.32;1.70;;;;;;;;;;4973539;28;20224;-92
2022/05/28 11:12:30;;;;;;;9.82;2.13;;;;;;;;;;4970302;28;20026;-93
2022/05/28 11:15:15;;;;;;;19.25;2.47;;;;;;;;;;4971841;28;20035;-93
2022/05/28 11:17:58;;;;;;;10.88;2.03;;;;;;;;;;4967676;28;20035;-89
2022/05/28 11:20:28;;;;;;;15.85;3.50;;;;;;;;;;4981402;28;20046;-92
2022/05/28 11:23:13;;;;;;;10.88;2.65;;;;;;;;;;4973485;28;20097;-92
2022/05/28 11:25:57;;;;;;;6.50;1.80;;;;;;;;;;4965000;28;20098;-92
2022/05/28 11:28:53;;;;;;;9.27;2.22;;;;;;;;;;4981614;28;20023;-92
2022/05/28 11:31:23;;;;;;;11.80;2.60;;;;;;;;;;4904496;28;20096;-92
2022/05/28 11:33:50;;;;;;;18.65;2.40;;;;;;;;;;4986078;28;20054;-93
2022/05/28 11:36:22;;;;;;;11.93;2.20;;;;;;;;;;4984205;28;20062;-92
2022/05/28 11:38:54;;;;;;;13.00;2.00;;;;;;;;;;4984931;28;20034;-91
2022/05/28 11:41:20;;;;;;;15.07;2.38;;;;;;;;;;4963881;28;20038;-93
2022/05/28 11:44:06;;;;;;;12.95;2.22;;;;;;;;;;4956523;28;20033;-91
2022/05/28 11:46:38;;;;;;;8.50;2.33;;;;;;;;;;4950103;28;20042;-92
2022/05/28 11:52:13;;;;;;;9.70;2.22;;;;;;;;;;4981284;28;20525;-92
2022/05/28 11:54:48;;;;;;;14.43;2.75;;;;;;;;;;4967284;28;20113;-92
2022/05/28 11:57:21;;;;;;;8.93;1.77;;;;;;;;;;4987213;28;20026;-93
2022/05/28 11:59:48;;;;;;;9.88;2.70;;;;;;;;;;4980025;28;20039;-91
2022/05/28 12:02:17;;;;;;;11.15;2.15;;;;;;;;;;4980713;28;20034;-92
2022/05/28 12:04:44;;;;;;;10.32;2.83;;;;;;;;;;4964219;28;20035;-92
2022/05/28 12:07:12;;;;;;;13.95;3.13;;;;;;;;;;4966716;28;20038;-91
2022/05/28 12:09:43;;;;;;;10.27;2.70;;;;;;;;;;4964715;28;20125;-89
2022/05/28 12:12:22;;;;;;;19.48;3.85;;;;;;;;;;4969038;28;20494;-89
2022/05/28 12:15:01;;;;;;;14.43;2.13;;;;;;;;;;4970313;28;20045;-91
2022/05/28 12:17:28;;;;;;;14.55;3.25;;;;;;;;;;4980153;28;20041;-91
2022/05/28 12:19:56;;;;;;;10.85;1.85;;;;;;;;;;4963692;28;20592;-90
2022/05/28 12:22:31;;;;;;;10.85;2.38;;;;;;;;;;4975194;28;20046;-91
2022/05/28 12:24:57;;;;;;;14.68;2.53;;;;;;;;;;4967599;28;20027;-91
2022/05/28 12:27:24;;;;;;;19.23;2.58;;;;;;;;;;4961674;28;20026;-92
2022/05/28 12:30:01;;;;;;;11.93;2.60;;;;;;;;;;4962684;28;20485;-91
2022/05/28 12:32:30;;;;;;;15.38;2.65;;;;;;;;;;4966517;28;20046;-91
2022/05/28 12:35:22;;;;;;;12.88;2.75;;;;;;;;;;4968839;28;20061;-91
2022/05/28 12:37:54;;;;;;;13.50;3.05;;;;;;;;;;4963931;28;20389;-91
2022/05/28 12:40:30;;;;;;;13.23;2.50;;;;;;;;;;4979580;28;20121;-92
2022/05/28 12:43:00;;;;;;;17.95;2.15;;;;;;;;;;4966365;28;20070;-92
2022/05/28 12:45:42;;;;;;;19.02;2.88;;;;;;;;;;4966009;28;20050;-92
2022/05/28 12:48:12;;;;;;;13.07;2.33;;;;;;;;;;4966267;28;20189;-91
2022/05/28 12:51:00;;;;;;;10.63;2.25;;;;;;;;;;4961812;28;20042;-94
2022/05/28 12:53:27;;;;;;;11.73;2.53;;;;;;;;;;4940478;28;20129;-93
2022/05/28 12:56:06;;;;;;;9.55;2.17;;;;;;;;;;4964566;28;20132;-91
2022/05/28 12:58:33;;;;;;;19.40;6.93;;;;;;;;;;4967559;28;20274;-91
2022/05/28 13:01:00;;;;;;;15.80;5.05;;;;;;;;;;4963602;28;20471;-92
2022/05/28 13:03:29;;;;;;;11.20;2.75;;;;;;;;;;4969122;28;20039;-91
2022/05/28 13:06:14;;;;;;;12.32;2.25;;;;;;;;;;4954292;28;20061;-91
2022/05/28 13:08:49;;;;;;;5.85;1.50;;;;;;;;;;4960706;28;20058;-92
2022/05/28 13:11:33;;;;;;;10.73;1.88;;;;;;;;;;4965099;28;20530;-94
2022/05/28 13:14:12;;;;;;;13.82;2.90;;;;;;;;;;4960663;28;20038;-90
2022/05/28 13:16:50;;;;;;;9.73;2.47;;;;;;;;;;4962376;28;20034;-90
2022/05/28 13:19:39;;;;;;;4.25;2.55;;;;;;;;;;4967493;28;20030;-91
2022/05/28 13:22:11;;;;;;;7.70;1.42;;;;;;;;;;4951056;28;20751;-90
2022/05/28 13:24:52;;;;;;;9.70;2.90;;;;;;;;;;4939191;28;20498;-90
2022/05/28 13:27:21;;;;;;;9.38;1.70;;;;;;;;;;4959763;28;20143;-90
2022/05/28 13:30:06;;;;;;;8.80;2.03;;;;;;;;;;4963097;28;20035;-92
2022/05/28 13:32:35;;;;;;;6.72;1.45;;;;;;;;;;4949606;28;20402;-90
2022/05/28 13:35:02;;;;;;;7.95;1.83;;;;;;;;;;4951519;28;20042;-89
2022/05/28 13:37:29;;;;;;;7.68;1.45;;;;;;;;;;4950043;28;20133;-91
2022/05/28 13:39:56;;;;;;;5.55;1.50;;;;;;;;;;4954388;28;20307;-88
2022/05/28 13:42:22;;;;;;;8.98;1.88;;;;;;;;;;4978411;28;20038;-89
2022/05/28 13:44:48;;;;;;;9.70;2.15;;;;;;;;;;4978398;28;20023;-91
2022/05/28 13:47:16;;;;;;;10.45;2.08;;;;;;;;;;4946850;28;20089;-90
2022/05/28 13:49:48;;;;;;;8.38;1.50;;;;;;;;;;4946623;28;20453;-88
2022/05/28 13:52:16;;;;;;;16.67;2.55;;;;;;;;;;4936114;28;20513;-90
2022/05/28 13:54:52;;;;;;;7.90;2.00;;;;;;;;;;4937070;28;20038;-89
2022/05/28 13:57:18;;;;;;;9.48;1.73;;;;;;;;;;4957051;28;20451;-89
2022/05/28 13:59:49;;;;;;;8.48;1.92;;;;;;;;;;4940074;28;20035;-88
2022/05/28 14:02:24;;;;;;;14.50;2.17;;;;;;;;;;4939824;28;20041;-90
2022/05/28 14:04:51;;;;;;;10.38;2.63;;;;;;;;;;4952939;28;20086;-90
2022/05/28 14:07:20;;;;;;;11.15;2.13;;;;;;;;;;4937716;28;20031;-89
2022/05/28 14:09:46;;;;;;;11.20;1.98;;;;;;;;;;4933121;28;20042;-90
2022/05/28 14:12:13;;;;;;;17.20;2.17;;;;;;;;;;4942503;28;20043;-89
2022/05/28 14:14:40;;;;;;;13.90;2.10;;;;;;;;;;4940698;28;20142;-89
2022/05/28 14:17:09;;;;;;;11.27;2.08;;;;;;;;;;4940795;28;20486;-89
2022/05/28 14:19:42;;;;;;;8.45;1.77;;;;;;;;;;4942350;28;20114;-88
2022/05/28 14:22:25;;;;;;;6.70;2.40;;;;;;;;;;4958761;28;20050;-90
2022/05/28 14:24:53;;;;;;;17.70;2.20;;;;;;;;;;4961199;28;20046;-88
2022/05/28 14:27:25;;;;;;;6.47;1.90;;;;;;;;;;4971537;28;20423;-90
2022/05/28 14:29:52;;;;;;;10.50;2.20;;;;;;;;;;4962120;28;20145;-90
2022/05/28 14:32:20;;;;;;;4.68;1.45;;;;;;;;;;4965384;28;20026;-85
2022/05/28 14:34:47;;;;;;;5.93;1.50;;;;;;;;;;4960665;28;20044;-85
2022/05/28 14:37:24;;;;;;;4.95;1.10;;;;;;;;;;4962363;28;20041;-86
2022/05/28 14:39:50;;;;;;;12.63;1.60;;;;;;;;;;4969941;28;20061;-86
2022/05/28 14:42:39;;;;;;;10.38;1.65;;;;;;;;;;4979023;28;20030;-84
2022/05/28 14:45:10;;;;;;;13.80;1.95;;;;;;;;;;4923574;28;20498;-85
2022/05/28 14:47:36;;;;;;;8.00;1.42;;;;;;;;;;4975004;28;20042;-85
2022/05/28 14:50:04;;;;;;;7.28;1.63;;;;;;;;;;4971161;28;20201;-85
2022/05/28 14:52:32;;;;;;;6.22;1.38;;;;;;;;;;4955386;28;20546;-85
2022/05/28 14:55:03;;;;;;;7.63;1.30;;;;;;;;;;4963885;28;20493;-86
2022/05/28 14:57:29;;;;;;;12.00;1.50;;;;;;;;;;4976550;28;20038;-86